首页
METAR-TAF:

METAR-TAF

机场 :

伊利, 宾夕法尼亚州, 美国

纬度: 42-04-48N, 经度: 080-10-57W, 海拔: 223米

当前天气观测

该预报发布于41分钟前的12:51 UTC
静风
温度 19°C
湿度 78%
气压 1015 hPa
能見度: 16.1公里
少量云层高于4400英尺

METAR: KERI 181251Z 00000KT 10SM FEW044 19/15 A2996 RMK AO2 SLP142 T01890150

时间: 09:32 (13:32 UTC)

预报

该预报发布于2小时和12分钟前的11:20 UTC
预报有效从18日的 12点(UTC)到 19日的 12点(UTC)
风速3节,风向多变
能見度: 10公里
散云层高于1500英尺
多云层高于3500英尺
短暂存在
从 18日的 12点(UTC)到 18日的 15点(UTC)
多云层高于1500英尺
从 18日的 1500点(UTC)
风速4节,风向
能見度: 10公里
阴天层高于5000英尺
从 18日的 1800点(UTC)
风速5节,风向
能見度: 10公里
多云层高于10000英尺
从 19日的 0000点(UTC)
风速3节,风向多变
能見度: 10公里
多云层高于10000英尺
从 19日的 0600点(UTC)
风速3节,风向
能見度: 4.8公里
阴天层高于1000英尺
轻雾

TAF: KERI 181120Z 1812/1912 VRB03KT P6SM SCT015 BKN035 TEMPO 1812/1815 BKN015 FM181500 35004KT P6SM OVC050 FM181800 01005KT P6SM BKN100 FM190000 VRB03KT P6SM BKN100 FM190600 18003KT 3SM BR OVC010

超过4000个机场的气象观测和天气预报(METAR&TAF报告)。

可查询的气象台以黄色和红色小点在地图上表示。

将鼠标移到小点上方,可查看气象台名称。

然后点击查看天气观测和预报。

如需切换地图:点击带黑十字的绿色按钮放大地图;点击带横线的绿色按钮缩小地图;或者点击绿色箭头查看邻近地区的地图。


METAR-TAF: